sensor_id;sensor_type;location;lat;lon;timestamp;temperature;humidity
1347;DHT22;667;48.796;9.480;2022-08-21T00:02:27;19.20;88.00
1347;DHT22;667;48.796;9.480;2022-08-21T00:04:53;19.20;87.70
1347;DHT22;667;48.796;9.480;2022-08-21T00:07:20;19.10;87.20
1347;DHT22;667;48.796;9.480;2022-08-21T00:09:46;19.20;87.00
1347;DHT22;667;48.796;9.480;2022-08-21T00:12:12;19.10;86.50
1347;DHT22;667;48.796;9.480;2022-08-21T00:14:39;19.10;85.90
1347;DHT22;667;48.796;9.480;2022-08-21T00:17:05;19.10;85.70
1347;DHT22;667;48.796;9.480;2022-08-21T00:19:32;19.10;85.60
1347;DHT22;667;48.796;9.480;2022-08-21T00:21:58;19.10;85.30
1347;DHT22;667;48.796;9.480;2022-08-21T00:24:25;19.10;85.30
1347;DHT22;667;48.796;9.480;2022-08-21T00:26:50;19.10;85.40
1347;DHT22;667;48.796;9.480;2022-08-21T00:29:17;19.00;85.40
1347;DHT22;667;48.796;9.480;2022-08-21T00:31:44;19.00;86.10
1347;DHT22;667;48.796;9.480;2022-08-21T00:34:11;19.00;86.60
1347;DHT22;667;48.796;9.480;2022-08-21T00:36:37;19.00;86.90
1347;DHT22;667;48.796;9.480;2022-08-21T00:39:05;19.00;87.10
1347;DHT22;667;48.796;9.480;2022-08-21T00:41:32;19.00;87.10
1347;DHT22;667;48.796;9.480;2022-08-21T00:43:58;18.90;87.20
1347;DHT22;667;48.796;9.480;2022-08-21T00:46:24;18.90;87.30
1347;DHT22;667;48.796;9.480;2022-08-21T00:48:49;18.90;87.20
1347;DHT22;667;48.796;9.480;2022-08-21T00:51:41;18.90;87.50
1347;DHT22;667;48.796;9.480;2022-08-21T00:54:09;18.90;87.80
1347;DHT22;667;48.796;9.480;2022-08-21T00:56:36;18.90;88.10
1347;DHT22;667;48.796;9.480;2022-08-21T00:59:02;18.90;88.30
1347;DHT22;667;48.796;9.480;2022-08-21T01:01:29;18.90;88.20
1347;DHT22;667;48.796;9.480;2022-08-21T01:03:54;18.90;87.90
1347;DHT22;667;48.796;9.480;2022-08-21T01:06:20;18.90;87.80
1347;DHT22;667;48.796;9.480;2022-08-21T01:08:46;18.90;87.40
1347;DHT22;667;48.796;9.480;2022-08-21T01:11:13;18.90;87.10
1347;DHT22;667;48.796;9.480;2022-08-21T01:13:40;18.80;87.00
1347;DHT22;667;48.796;9.480;2022-08-21T01:16:10;18.80;86.90
1347;DHT22;667;48.796;9.480;2022-08-21T01:18:36;18.80;86.60
1347;DHT22;667;48.796;9.480;2022-08-21T01:21:11;18.80;86.30
1347;DHT22;667;48.796;9.480;2022-08-21T01:23:40;18.80;86.00
1347;DHT22;667;48.796;9.480;2022-08-21T01:26:06;18.80;86.00
1347;DHT22;667;48.796;9.480;2022-08-21T01:28:52;18.80;86.10
1347;DHT22;667;48.796;9.480;2022-08-21T01:31:21;18.80;86.50
1347;DHT22;667;48.796;9.480;2022-08-21T01:33:48;18.80;86.90
1347;DHT22;667;48.796;9.480;2022-08-21T01:36:14;18.80;87.00
1347;DHT22;667;48.796;9.480;2022-08-21T01:38:39;18.80;86.80
1347;DHT22;667;48.796;9.480;2022-08-21T01:41:05;18.70;86.70
1347;DHT22;667;48.796;9.480;2022-08-21T01:43:30;18.70;87.10
1347;DHT22;667;48.796;9.480;2022-08-21T01:45:56;18.70;87.50
1347;DHT22;667;48.796;9.480;2022-08-21T01:48:22;18.70;87.80
1347;DHT22;667;48.796;9.480;2022-08-21T01:50:48;18.70;88.30
1347;DHT22;667;48.796;9.480;2022-08-21T01:53:13;18.70;89.00
1347;DHT22;667;48.796;9.480;2022-08-21T01:55:41;18.70;89.00
1347;DHT22;667;48.796;9.480;2022-08-21T01:58:07;18.60;88.10
1347;DHT22;667;48.796;9.480;2022-08-21T02:00:33;18.70;88.00
1347;DHT22;667;48.796;9.480;2022-08-21T02:02:58;18.60;87.50
1347;DHT22;667;48.796;9.480;2022-08-21T02:05:25;18.60;87.30
1347;DHT22;667;48.796;9.480;2022-08-21T02:07:52;18.50;87.20
1347;DHT22;667;48.796;9.480;2022-08-21T02:10:22;18.50;87.00
1347;DHT22;667;48.796;9.480;2022-08-21T02:12:48;18.50;87.20
1347;DHT22;667;48.796;9.480;2022-08-21T02:15:15;18.50;87.40
1347;DHT22;667;48.796;9.480;2022-08-21T02:18:00;18.50;87.50
1347;DHT22;667;48.796;9.480;2022-08-21T02:22:55;18.40;87.80
1347;DHT22;667;48.796;9.480;2022-08-21T02:25:22;18.40;87.80
1347;DHT22;667;48.796;9.480;2022-08-21T02:27:48;18.40;87.70
1347;DHT22;667;48.796;9.480;2022-08-21T02:30:18;18.40;87.80
1347;DHT22;667;48.796;9.480;2022-08-21T02:32:45;18.40;88.00
1347;DHT22;667;48.796;9.480;2022-08-21T02:35:11;18.30;87.90
1347;DHT22;667;48.796;9.480;2022-08-21T02:40:10;18.40;88.40
1347;DHT22;667;48.796;9.480;2022-08-21T02:42:37;18.30;88.20
1347;DHT22;667;48.796;9.480;2022-08-21T02:45:04;18.30;88.30
1347;DHT22;667;48.796;9.480;2022-08-21T02:47:30;18.30;88.00
1347;DHT22;667;48.796;9.480;2022-08-21T02:49:55;18.30;88.10
1347;DHT22;667;48.796;9.480;2022-08-21T02:52:21;18.30;88.20
1347;DHT22;667;48.796;9.480;2022-08-21T02:54:47;18.30;88.20
1347;DHT22;667;48.796;9.480;2022-08-21T02:57:13;18.20;88.10
1347;DHT22;667;48.796;9.480;2022-08-21T02:59:38;18.20;88.10
1347;DHT22;667;48.796;9.480;2022-08-21T03:02:06;18.20;88.40
1347;DHT22;667;48.796;9.480;2022-08-21T03:04:31;18.20;88.70
1347;DHT22;667;48.796;9.480;2022-08-21T03:06:57;18.20;88.90
1347;DHT22;667;48.796;9.480;2022-08-21T03:09:23;18.20;88.80
1347;DHT22;667;48.796;9.480;2022-08-21T03:11:50;18.20;88.50
1347;DHT22;667;48.796;9.480;2022-08-21T03:14:17;18.20;88.20
1347;DHT22;667;48.796;9.480;2022-08-21T03:16:43;18.20;88.00
1347;DHT22;667;48.796;9.480;2022-08-21T03:19:09;18.20;87.90
1347;DHT22;667;48.796;9.480;2022-08-21T03:21:34;18.10;87.30
1347;DHT22;667;48.796;9.480;2022-08-21T03:24:00;18.10;87.10
1347;DHT22;667;48.796;9.480;2022-08-21T03:26:26;18.10;86.70
1347;DHT22;667;48.796;9.480;2022-08-21T03:28:51;18.10;86.50
1347;DHT22;667;48.796;9.480;2022-08-21T03:31:17;18.00;86.20
1347;DHT22;667;48.796;9.480;2022-08-21T03:33:43;18.00;85.70
1347;DHT22;667;48.796;9.480;2022-08-21T03:36:09;18.00;85.50
1347;DHT22;667;48.796;9.480;2022-08-21T03:38:36;18.00;85.10
1347;DHT22;667;48.796;9.480;2022-08-21T03:41:03;17.90;85.70
1347;DHT22;667;48.796;9.480;2022-08-21T03:43:29;17.90;85.20
1347;DHT22;667;48.796;9.480;2022-08-21T03:45:55;17.90;85.40
1347;DHT22;667;48.796;9.480;2022-08-21T03:48:21;17.90;85.80
1347;DHT22;667;48.796;9.480;2022-08-21T03:50:47;17.90;86.00
1347;DHT22;667;48.796;9.480;2022-08-21T03:53:15;17.80;86.30
1347;DHT22;667;48.796;9.480;2022-08-21T03:55:41;17.80;86.80
1347;DHT22;667;48.796;9.480;2022-08-21T03:58:07;17.80;87.20
1347;DHT22;667;48.796;9.480;2022-08-21T04:00:33;17.80;87.40
1347;DHT22;667;48.796;9.480;2022-08-21T04:02:59;17.70;87.30
1347;DHT22;667;48.796;9.480;2022-08-21T04:05:25;17.70;87.50
1347;DHT22;667;48.796;9.480;2022-08-21T04:07:57;17.70;87.50
1347;DHT22;667;48.796;9.480;2022-08-21T04:10:23;17.70;87.60
1347;DHT22;667;48.796;9.480;2022-08-21T04:12:50;17.70;87.60
1347;DHT22;667;48.796;9.480;2022-08-21T04:15:16;17.70;87.30
1347;DHT22;667;48.796;9.480;2022-08-21T04:17:42;17.70;87.50
1347;DHT22;667;48.796;9.480;2022-08-21T04:20:08;17.70;88.20
1347;DHT22;667;48.796;9.480;2022-08-21T04:22:34;17.70;87.80
1347;DHT22;667;48.796;9.480;2022-08-21T04:24:59;17.70;87.90
1347;DHT22;667;48.796;9.480;2022-08-21T04:27:25;17.70;88.70
1347;DHT22;667;48.796;9.480;2022-08-21T04:29:50;17.70;88.20
1347;DHT22;667;48.796;9.480;2022-08-21T04:32:25;17.70;88.10
1347;DHT22;667;48.796;9.480;2022-08-21T04:35:00;17.70;88.40
1347;DHT22;667;48.796;9.480;2022-08-21T04:37:27;17.70;88.50
1347;DHT22;667;48.796;9.480;2022-08-21T04:39:52;17.70;88.30
1347;DHT22;667;48.796;9.480;2022-08-21T04:42:18;17.70;88.40
1347;DHT22;667;48.796;9.480;2022-08-21T04:44:44;17.70;88.50
1347;DHT22;667;48.796;9.480;2022-08-21T04:47:09;17.70;88.40
1347;DHT22;667;48.796;9.480;2022-08-21T04:49:35;17.70;88.40
1347;DHT22;667;48.796;9.480;2022-08-21T04:52:01;17.70;88.50
1347;DHT22;667;48.796;9.480;2022-08-21T04:54:27;17.70;88.50
1347;DHT22;667;48.796;9.480;2022-08-21T04:56:58;17.70;88.50
1347;DHT22;667;48.796;9.480;2022-08-21T04:59:36;17.70;88.50
1347;DHT22;667;48.796;9.480;2022-08-21T05:02:05;17.70;88.40
1347;DHT22;667;48.796;9.480;2022-08-21T05:04:33;17.70;88.40
1347;DHT22;667;48.796;9.480;2022-08-21T05:07:03;17.70;88.30
1347;DHT22;667;48.796;9.480;2022-08-21T05:09:29;17.70;88.20
1347;DHT22;667;48.796;9.480;2022-08-21T05:11:55;17.70;88.20
1347;DHT22;667;48.796;9.480;2022-08-21T05:14:21;17.80;88.40
1347;DHT22;667;48.796;9.480;2022-08-21T05:16:47;17.80;88.50
1347;DHT22;667;48.796;9.480;2022-08-21T05:19:13;17.80;88.50
1347;DHT22;667;48.796;9.480;2022-08-21T05:21:41;17.80;88.60
1347;DHT22;667;48.796;9.480;2022-08-21T05:24:07;17.80;88.60
1347;DHT22;667;48.796;9.480;2022-08-21T05:26:33;17.80;88.70
1347;DHT22;667;48.796;9.480;2022-08-21T05:28:59;17.80;88.60
1347;DHT22;667;48.796;9.480;2022-08-21T05:31:24;17.80;88.40
1347;DHT22;667;48.796;9.480;2022-08-21T05:33:50;17.70;88.50
1347;DHT22;667;48.796;9.480;2022-08-21T05:36:17;17.70;88.50
1347;DHT22;667;48.796;9.480;2022-08-21T05:38:43;17.60;88.30
1347;DHT22;667;48.796;9.480;2022-08-21T05:41:09;17.60;88.50
1347;DHT22;667;48.796;9.480;2022-08-21T05:43:35;17.60;89.40
1347;DHT22;667;48.796;9.480;2022-08-21T05:46:05;17.60;90.00
1347;DHT22;667;48.796;9.480;2022-08-21T05:48:32;17.60;89.40
1347;DHT22;667;48.796;9.480;2022-08-21T05:50:58;17.60;89.50
1347;DHT22;667;48.796;9.480;2022-08-21T05:53:24;17.60;89.60
1347;DHT22;667;48.796;9.480;2022-08-21T05:55:51;17.60;89.20
1347;DHT22;667;48.796;9.480;2022-08-21T05:58:19;17.50;89.40
1347;DHT22;667;48.796;9.480;2022-08-21T06:00:47;17.50;89.50
1347;DHT22;667;48.796;9.480;2022-08-21T06:03:15;17.50;89.90
1347;DHT22;667;48.796;9.480;2022-08-21T06:05:42;17.50;89.90
1347;DHT22;667;48.796;9.480;2022-08-21T06:08:08;17.50;89.80
1347;DHT22;667;48.796;9.480;2022-08-21T06:10:33;17.50;90.00
1347;DHT22;667;48.796;9.480;2022-08-21T06:12:59;17.50;90.20
1347;DHT22;667;48.796;9.480;2022-08-21T06:15:24;17.50;90.40
1347;DHT22;667;48.796;9.480;2022-08-21T06:17:52;17.60;90.70
1347;DHT22;667;48.796;9.480;2022-08-21T06:20:18;17.60;90.90
1347;DHT22;667;48.796;9.480;2022-08-21T06:22:43;17.70;90.80
1347;DHT22;667;48.796;9.480;2022-08-21T06:25:09;17.70;90.80
1347;DHT22;667;48.796;9.480;2022-08-21T06:27:35;17.70;90.70
1347;DHT22;667;48.796;9.480;2022-08-21T06:30:02;17.80;90.70
1347;DHT22;667;48.796;9.480;2022-08-21T06:32:28;17.80;90.70
1347;DHT22;667;48.796;9.480;2022-08-21T06:34:53;17.90;90.90
1347;DHT22;667;48.796;9.480;2022-08-21T06:37:20;18.00;90.50
1347;DHT22;667;48.796;9.480;2022-08-21T06:39:45;18.00;90.50
1347;DHT22;667;48.796;9.480;2022-08-21T06:42:16;18.00;90.30
1347;DHT22;667;48.796;9.480;2022-08-21T06:44:42;18.10;90.20
1347;DHT22;667;48.796;9.480;2022-08-21T06:47:07;18.10;90.10
1347;DHT22;667;48.796;9.480;2022-08-21T06:49:33;18.10;90.10
1347;DHT22;667;48.796;9.480;2022-08-21T06:51:59;18.20;90.10
1347;DHT22;667;48.796;9.480;2022-08-21T06:54:25;18.20;90.10
1347;DHT22;667;48.796;9.480;2022-08-21T06:56:51;18.20;89.80
1347;DHT22;667;48.796;9.480;2022-08-21T06:59:16;18.20;89.50
1347;DHT22;667;48.796;9.480;2022-08-21T07:01:42;18.20;89.40
1347;DHT22;667;48.796;9.480;2022-08-21T07:04:08;18.30;90.00
1347;DHT22;667;48.796;9.480;2022-08-21T07:06:34;18.30;90.00
1347;DHT22;667;48.796;9.480;2022-08-21T07:08:59;18.30;90.20
1347;DHT22;667;48.796;9.480;2022-08-21T07:11:26;18.40;90.30
1347;DHT22;667;48.796;9.480;2022-08-21T07:13:52;18.40;90.50
1347;DHT22;667;48.796;9.480;2022-08-21T07:16:20;18.50;90.50
1347;DHT22;667;48.796;9.480;2022-08-21T07:18:46;18.50;90.30
1347;DHT22;667;48.796;9.480;2022-08-21T07:21:12;18.60;90.10
1347;DHT22;667;48.796;9.480;2022-08-21T07:23:42;18.60;90.20
1347;DHT22;667;48.796;9.480;2022-08-21T07:26:08;18.60;90.50
1347;DHT22;667;48.796;9.480;2022-08-21T07:28:35;18.60;90.00
1347;DHT22;667;48.796;9.480;2022-08-21T07:31:02;18.70;90.40
1347;DHT22;667;48.796;9.480;2022-08-21T07:33:30;18.80;90.30
1347;DHT22;667;48.796;9.480;2022-08-21T07:35:56;18.80;90.30
1347;DHT22;667;48.796;9.480;2022-08-21T07:38:22;18.90;90.20
1347;DHT22;667;48.796;9.480;2022-08-21T07:40:49;18.90;90.20
1347;DHT22;667;48.796;9.480;2022-08-21T07:43:15;19.00;90.20
1347;DHT22;667;48.796;9.480;2022-08-21T07:45:44;19.10;90.10
1347;DHT22;667;48.796;9.480;2022-08-21T07:48:10;19.10;90.00
1347;DHT22;667;48.796;9.480;2022-08-21T07:50:36;19.20;89.70
1347;DHT22;667;48.796;9.480;2022-08-21T07:53:02;19.30;89.30
1347;DHT22;667;48.796;9.480;2022-08-21T07:55:28;19.30;89.80
1347;DHT22;667;48.796;9.480;2022-08-21T07:57:53;19.40;88.90
1347;DHT22;667;48.796;9.480;2022-08-21T08:00:21;19.50;88.90
1347;DHT22;667;48.796;9.480;2022-08-21T08:02:50;19.50;88.70
1347;DHT22;667;48.796;9.480;2022-08-21T08:05:18;19.60;87.80
1347;DHT22;667;48.796;9.480;2022-08-21T08:07:44;19.70;87.30
1347;DHT22;667;48.796;9.480;2022-08-21T08:10:10;19.80;87.10
1347;DHT22;667;48.796;9.480;2022-08-21T08:12:37;19.80;87.00
1347;DHT22;667;48.796;9.480;2022-08-21T08:15:05;19.90;86.60
1347;DHT22;667;48.796;9.480;2022-08-21T08:17:31;20.00;85.90
1347;DHT22;667;48.796;9.480;2022-08-21T08:19:58;20.10;85.20
1347;DHT22;667;48.796;9.480;2022-08-21T08:22:26;20.20;84.70
1347;DHT22;667;48.796;9.480;2022-08-21T08:24:53;20.20;84.10
1347;DHT22;667;48.796;9.480;2022-08-21T08:27:19;20.30;84.60
1347;DHT22;667;48.796;9.480;2022-08-21T08:29:45;20.40;83.50
1347;DHT22;667;48.796;9.480;2022-08-21T08:32:11;20.50;83.30
1347;DHT22;667;48.796;9.480;2022-08-21T08:34:38;20.60;82.90
1347;DHT22;667;48.796;9.480;2022-08-21T08:37:06;20.70;81.70
1347;DHT22;667;48.796;9.480;2022-08-21T08:39:33;20.70;80.30
1347;DHT22;667;48.796;9.480;2022-08-21T08:42:07;20.80;79.60
1347;DHT22;667;48.796;9.480;2022-08-21T08:44:35;20.90;78.70
1347;DHT22;667;48.796;9.480;2022-08-21T08:47:01;21.00;77.70
1347;DHT22;667;48.796;9.480;2022-08-21T08:49:43;21.10;76.70
1347;DHT22;667;48.796;9.480;2022-08-21T08:52:31;21.20;76.60
1347;DHT22;667;48.796;9.480;2022-08-21T08:55:07;21.30;76.10
1347;DHT22;667;48.796;9.480;2022-08-21T08:57:34;21.40;75.60
1347;DHT22;667;48.796;9.480;2022-08-21T09:00:05;21.50;74.40
1347;DHT22;667;48.796;9.480;2022-08-21T09:02:31;21.60;74.60
1347;DHT22;667;48.796;9.480;2022-08-21T09:04:59;21.70;74.40
1347;DHT22;667;48.796;9.480;2022-08-21T09:10:28;22.00;73.70
1347;DHT22;667;48.796;9.480;2022-08-21T09:13:12;22.10;72.00
1347;DHT22;667;48.796;9.480;2022-08-21T09:26:36;22.80;67.50
1347;DHT22;667;48.796;9.480;2022-08-21T09:29:07;22.90;66.00
1347;DHT22;667;48.796;9.480;2022-08-21T09:31:36;23.10;65.70
1347;DHT22;667;48.796;9.480;2022-08-21T09:34:07;23.20;65.10
1347;DHT22;667;48.796;9.480;2022-08-21T09:36:48;23.30;65.30
1347;DHT22;667;48.796;9.480;2022-08-21T09:39:31;23.40;65.70
1347;DHT22;667;48.796;9.480;2022-08-21T09:44:28;23.70;63.90
1347;DHT22;667;48.796;9.480;2022-08-21T09:46:54;23.70;63.00
1347;DHT22;667;48.796;9.480;2022-08-21T09:49:37;23.90;62.40
1347;DHT22;667;48.796;9.480;2022-08-21T09:52:26;24.00;60.40
1347;DHT22;667;48.796;9.480;2022-08-21T09:54:54;24.10;60.90
1347;DHT22;667;48.796;9.480;2022-08-21T09:57:28;24.30;61.20
1347;DHT22;667;48.796;9.480;2022-08-21T10:00:30;24.40;59.90
1347;DHT22;667;48.796;9.480;2022-08-21T10:05:49;24.70;58.30
1347;DHT22;667;48.796;9.480;2022-08-21T10:08:21;24.80;57.10
1347;DHT22;667;48.796;9.480;2022-08-21T10:10:55;24.90;56.70
1347;DHT22;667;48.796;9.480;2022-08-21T10:18:35;25.20;54.50
1347;DHT22;667;48.796;9.480;2022-08-21T10:21:02;25.40;54.90
1347;DHT22;667;48.796;9.480;2022-08-21T10:28:44;25.70;54.90
1347;DHT22;667;48.796;9.480;2022-08-21T10:31:36;25.90;54.80
1347;DHT22;667;48.796;9.480;2022-08-21T10:48:29;26.40;52.90
1347;DHT22;667;48.796;9.480;2022-08-21T10:51:11;26.50;52.40
1347;DHT22;667;48.796;9.480;2022-08-21T10:56:40;26.60;52.10
1347;DHT22;667;48.796;9.480;2022-08-21T11:04:36;26.90;52.90
1347;DHT22;667;48.796;9.480;2022-08-21T11:07:12;26.90;50.60
1347;DHT22;667;48.796;9.480;2022-08-21T11:09:43;27.00;50.60
1347;DHT22;667;48.796;9.480;2022-08-21T11:12:27;27.10;50.00
1347;DHT22;667;48.796;9.480;2022-08-21T11:17:37;27.20;49.50
1347;DHT22;667;48.796;9.480;2022-08-21T11:20:16;27.30;49.90
1347;DHT22;667;48.796;9.480;2022-08-21T11:22:47;27.30;48.80
1347;DHT22;667;48.796;9.480;2022-08-21T11:25:29;27.40;49.80
1347;DHT22;667;48.796;9.480;2022-08-21T11:28:02;27.40;48.50
1347;DHT22;667;48.796;9.480;2022-08-21T11:30:47;27.50;48.40
1347;DHT22;667;48.796;9.480;2022-08-21T11:38:46;27.70;47.20
1347;DHT22;667;48.796;9.480;2022-08-21T11:41:52;27.70;46.90
1347;DHT22;667;48.796;9.480;2022-08-21T11:55:44;27.80;46.70
1347;DHT22;667;48.796;9.480;2022-08-21T11:58:22;27.70;46.40
1347;DHT22;667;48.796;9.480;2022-08-21T12:03:35;27.50;47.00
1347;DHT22;667;48.796;9.480;2022-08-21T12:06:10;27.40;47.00
1347;DHT22;667;48.796;9.480;2022-08-21T12:08:37;27.30;46.30
1347;DHT22;667;48.796;9.480;2022-08-21T12:11:07;27.30;46.80
1347;DHT22;667;48.796;9.480;2022-08-21T12:13:37;27.30;47.30
1347;DHT22;667;48.796;9.480;2022-08-21T12:19:56;27.30;45.90
1347;DHT22;667;48.796;9.480;2022-08-21T12:24:42;27.50;45.60
1347;DHT22;667;48.796;9.480;2022-08-21T12:29:58;27.60;45.20
1347;DHT22;667;48.796;9.480;2022-08-21T12:35:15;27.60;44.50
1347;DHT22;667;48.796;9.480;2022-08-21T12:40:47;27.70;44.70
1347;DHT22;667;48.796;9.480;2022-08-21T12:43:20;27.80;44.10
1347;DHT22;667;48.796;9.480;2022-08-21T12:45:49;27.80;43.60
1347;DHT22;667;48.796;9.480;2022-08-21T12:48:25;27.80;43.50
1347;DHT22;667;48.796;9.480;2022-08-21T12:50:57;27.80;43.20
1347;DHT22;667;48.796;9.480;2022-08-21T12:56:13;27.90;44.00
1347;DHT22;667;48.796;9.480;2022-08-21T12:59:14;27.90;42.90
1347;DHT22;667;48.796;9.480;2022-08-21T13:01:51;27.90;42.50
1347;DHT22;667;48.796;9.480;2022-08-21T13:04:20;28.00;43.00
1347;DHT22;667;48.796;9.480;2022-08-21T13:06:50;28.00;43.30
1347;DHT22;667;48.796;9.480;2022-08-21T13:09:27;28.00;43.20
1347;DHT22;667;48.796;9.480;2022-08-21T13:11:53;28.00;43.00
1347;DHT22;667;48.796;9.480;2022-08-21T13:14:40;28.00;42.80
1347;DHT22;667;48.796;9.480;2022-08-21T13:17:08;28.10;43.10
1347;DHT22;667;48.796;9.480;2022-08-21T13:19:34;28.10;43.50
1347;DHT22;667;48.796;9.480;2022-08-21T13:22:01;28.10;43.10
1347;DHT22;667;48.796;9.480;2022-08-21T13:24:29;28.20;42.60
1347;DHT22;667;48.796;9.480;2022-08-21T13:26:56;28.20;42.10
1347;DHT22;667;48.796;9.480;2022-08-21T13:29:27;28.20;41.30
1347;DHT22;667;48.796;9.480;2022-08-21T13:32:00;28.20;42.10
1347;DHT22;667;48.796;9.480;2022-08-21T13:34:30;28.20;41.70
1347;DHT22;667;48.796;9.480;2022-08-21T13:37:00;28.20;41.30
1347;DHT22;667;48.796;9.480;2022-08-21T13:39:26;28.20;40.40
1347;DHT22;667;48.796;9.480;2022-08-21T13:41:55;28.20;40.80
1347;DHT22;667;48.796;9.480;2022-08-21T13:44:40;28.20;40.70
1347;DHT22;667;48.796;9.480;2022-08-21T13:47:06;28.20;40.20
1347;DHT22;667;48.796;9.480;2022-08-21T13:49:40;28.20;39.90
1347;DHT22;667;48.796;9.480;2022-08-21T13:52:16;28.20;40.30
1347;DHT22;667;48.796;9.480;2022-08-21T13:54:42;28.20;40.40
1347;DHT22;667;48.796;9.480;2022-08-21T13:57:24;28.20;40.00
1347;DHT22;667;48.796;9.480;2022-08-21T13:59:51;28.20;39.50
1347;DHT22;667;48.796;9.480;2022-08-21T14:02:23;28.10;40.30
1347;DHT22;667;48.796;9.480;2022-08-21T14:04:56;28.10;41.10
1347;DHT22;667;48.796;9.480;2022-08-21T14:07:41;28.00;41.10
1347;DHT22;667;48.796;9.480;2022-08-21T14:10:15;28.00;41.50
1347;DHT22;667;48.796;9.480;2022-08-21T14:18:15;27.90;40.90
1347;DHT22;667;48.796;9.480;2022-08-21T14:20:42;27.80;41.40
1347;DHT22;667;48.796;9.480;2022-08-21T14:23:08;27.80;41.40
1347;DHT22;667;48.796;9.480;2022-08-21T14:25:44;27.90;41.50
1347;DHT22;667;48.796;9.480;2022-08-21T14:30:46;27.90;40.30
1347;DHT22;667;48.796;9.480;2022-08-21T14:33:18;27.90;40.00
1347;DHT22;667;48.796;9.480;2022-08-21T14:35:44;27.80;39.40
1347;DHT22;667;48.796;9.480;2022-08-21T14:38:19;27.80;39.80
1347;DHT22;667;48.796;9.480;2022-08-21T14:40:52;27.70;38.90
1347;DHT22;667;48.796;9.480;2022-08-21T14:43:19;27.70;39.20
1347;DHT22;667;48.796;9.480;2022-08-21T14:45:45;27.70;39.80
1347;DHT22;667;48.796;9.480;2022-08-21T14:48:11;27.70;40.10
1347;DHT22;667;48.796;9.480;2022-08-21T14:50:37;27.70;40.40
1347;DHT22;667;48.796;9.480;2022-08-21T14:53:03;27.70;40.40
1347;DHT22;667;48.796;9.480;2022-08-21T14:55:30;27.70;39.30
1347;DHT22;667;48.796;9.480;2022-08-21T14:58:17;27.70;38.90
1347;DHT22;667;48.796;9.480;2022-08-21T15:00:42;27.70;38.80
1347;DHT22;667;48.796;9.480;2022-08-21T15:03:08;27.70;39.20
1347;DHT22;667;48.796;9.480;2022-08-21T15:05:34;27.60;38.70
1347;DHT22;667;48.796;9.480;2022-08-21T15:08:00;27.60;39.00
1347;DHT22;667;48.796;9.480;2022-08-21T15:10:25;27.60;38.20
1347;DHT22;667;48.796;9.480;2022-08-21T15:12:51;27.60;38.70
1347;DHT22;667;48.796;9.480;2022-08-21T15:15:17;27.60;39.20
1347;DHT22;667;48.796;9.480;2022-08-21T15:17:42;27.60;39.90
1347;DHT22;667;48.796;9.480;2022-08-21T15:20:08;27.60;39.90
1347;DHT22;667;48.796;9.480;2022-08-21T15:22:34;27.60;40.00
1347;DHT22;667;48.796;9.480;2022-08-21T15:25:00;27.60;39.30
1347;DHT22;667;48.796;9.480;2022-08-21T15:27:26;27.60;39.50
1347;DHT22;667;48.796;9.480;2022-08-21T15:29:52;27.60;39.90
1347;DHT22;667;48.796;9.480;2022-08-21T15:32:25;27.60;39.90
1347;DHT22;667;48.796;9.480;2022-08-21T15:34:51;27.60;39.70
1347;DHT22;667;48.796;9.480;2022-08-21T15:37:17;27.60;39.30
1347;DHT22;667;48.796;9.480;2022-08-21T15:39:43;27.60;38.70
1347;DHT22;667;48.796;9.480;2022-08-21T15:42:09;27.50;38.00
1347;DHT22;667;48.796;9.480;2022-08-21T15:44:36;27.50;37.90
1347;DHT22;667;48.796;9.480;2022-08-21T15:47:01;27.50;37.70
1347;DHT22;667;48.796;9.480;2022-08-21T15:49:27;27.50;37.90
1347;DHT22;667;48.796;9.480;2022-08-21T15:51:53;27.40;37.80
1347;DHT22;667;48.796;9.480;2022-08-21T15:54:18;27.40;38.30
1347;DHT22;667;48.796;9.480;2022-08-21T15:56:45;27.30;38.20
1347;DHT22;667;48.796;9.480;2022-08-21T15:59:17;27.30;37.70
1347;DHT22;667;48.796;9.480;2022-08-21T16:01:44;27.30;37.80
1347;DHT22;667;48.796;9.480;2022-08-21T16:04:11;27.20;37.50
1347;DHT22;667;48.796;9.480;2022-08-21T16:06:39;27.20;37.50
1347;DHT22;667;48.796;9.480;2022-08-21T16:09:04;27.20;38.00
1347;DHT22;667;48.796;9.480;2022-08-21T16:11:30;27.20;37.80
1347;DHT22;667;48.796;9.480;2022-08-21T16:13:56;27.10;38.30
1347;DHT22;667;48.796;9.480;2022-08-21T16:16:23;27.10;38.20
1347;DHT22;667;48.796;9.480;2022-08-21T16:18:50;27.10;37.60
1347;DHT22;667;48.796;9.480;2022-08-21T16:21:17;27.10;37.50
1347;DHT22;667;48.796;9.480;2022-08-21T16:23:43;27.00;37.40
1347;DHT22;667;48.796;9.480;2022-08-21T16:26:10;27.00;37.00
1347;DHT22;667;48.796;9.480;2022-08-21T16:28:38;26.90;36.40
1347;DHT22;667;48.796;9.480;2022-08-21T16:31:05;26.90;36.40
1347;DHT22;667;48.796;9.480;2022-08-21T16:33:48;26.90;37.20
1347;DHT22;667;48.796;9.480;2022-08-21T16:36:14;26.80;37.90
1347;DHT22;667;48.796;9.480;2022-08-21T16:38:40;26.80;37.80
1347;DHT22;667;48.796;9.480;2022-08-21T16:41:10;26.70;37.20
1347;DHT22;667;48.796;9.480;2022-08-21T16:43:38;26.70;38.10
1347;DHT22;667;48.796;9.480;2022-08-21T16:46:04;26.70;37.60
1347;DHT22;667;48.796;9.480;2022-08-21T16:48:30;26.70;38.80
1347;DHT22;667;48.796;9.480;2022-08-21T16:50:57;26.60;42.60
1347;DHT22;667;48.796;9.480;2022-08-21T16:53:22;26.50;45.80
1347;DHT22;667;48.796;9.480;2022-08-21T16:55:50;26.50;47.90
1347;DHT22;667;48.796;9.480;2022-08-21T16:58:29;26.40;48.70
1347;DHT22;667;48.796;9.480;2022-08-21T17:00:56;26.30;48.70
1347;DHT22;667;48.796;9.480;2022-08-21T17:03:27;26.20;48.50
1347;DHT22;667;48.796;9.480;2022-08-21T17:05:54;26.10;48.50
1347;DHT22;667;48.796;9.480;2022-08-21T17:08:19;26.00;48.60
1347;DHT22;667;48.796;9.480;2022-08-21T17:10:47;26.00;48.80
1347;DHT22;667;48.796;9.480;2022-08-21T17:13:14;25.90;48.40
1347;DHT22;667;48.796;9.480;2022-08-21T17:15:40;25.80;48.40
1347;DHT22;667;48.796;9.480;2022-08-21T17:18:09;25.70;48.80
1347;DHT22;667;48.796;9.480;2022-08-21T17:20:36;25.70;49.50
1347;DHT22;667;48.796;9.480;2022-08-21T17:23:02;25.60;49.80
1347;DHT22;667;48.796;9.480;2022-08-21T17:25:28;25.40;49.80
1347;DHT22;667;48.796;9.480;2022-08-21T17:27:54;25.40;49.50
1347;DHT22;667;48.796;9.480;2022-08-21T17:30:21;25.30;49.30
1347;DHT22;667;48.796;9.480;2022-08-21T17:32:49;25.20;48.40
1347;DHT22;667;48.796;9.480;2022-08-21T17:35:16;25.10;47.90
1347;DHT22;667;48.796;9.480;2022-08-21T17:37:41;25.00;48.10
1347;DHT22;667;48.796;9.480;2022-08-21T17:40:09;24.90;48.30
1347;DHT22;667;48.796;9.480;2022-08-21T17:42:39;24.80;48.30
1347;DHT22;667;48.796;9.480;2022-08-21T17:45:07;24.70;48.50
1347;DHT22;667;48.796;9.480;2022-08-21T17:47:33;24.60;49.10
1347;DHT22;667;48.796;9.480;2022-08-21T17:49:59;24.60;49.90
1347;DHT22;667;48.796;9.480;2022-08-21T17:52:25;24.50;50.40
1347;DHT22;667;48.796;9.480;2022-08-21T17:54:50;24.40;50.60
1347;DHT22;667;48.796;9.480;2022-08-21T17:57:20;24.30;50.80
1347;DHT22;667;48.796;9.480;2022-08-21T17:59:46;24.20;50.90
1347;DHT22;667;48.796;9.480;2022-08-21T18:02:13;24.10;51.00
1347;DHT22;667;48.796;9.480;2022-08-21T18:04:39;24.10;51.30
1347;DHT22;667;48.796;9.480;2022-08-21T18:07:05;24.00;51.70
1347;DHT22;667;48.796;9.480;2022-08-21T18:09:31;23.90;51.90
1347;DHT22;667;48.796;9.480;2022-08-21T18:11:57;23.80;52.10